EGEC/CAL METAR and TAF weather

Enter ICAO airport designator
Station Type Date Time Source
EGEC METAR 2019/09/20 23:50 UTC NOAA

EGEC 202350Z 12017KT CAVOK 16/12 Q1014


Station Type Date Time Source
EGEC Decoded METAR 2019/09/20 23:50 UTC NOAA

Campbeltown, United Kingdom (EGEC) 55-26-14N 005-41-11W
Sep 20, 2019 - 07:50 PM EDT / 2019.09.20 2350 UTC
Wind: from the ESE (120 degrees) at 20 MPH (17 KT):0
Visibility: greater than 7 mile(s):0
Temperature: 60 F (16 C)
Dew Point: 53 F (12 C)
Relative Humidity: 77%
Pressure (altimeter): 29.94 in. Hg (1014 hPa)
ob: EGEC 202350Z 12017KT CAVOK 16/12 Q1014
cycle: 0

Station Type Date Time Source
EGEC TAF UTC NOAA

Error!

Example: see airport list